Time;durP1;ratioP1;P1;durP2;ratioP2;P2;SDS_P1;SDS_P2;PMS_P1;PMS_P2;Temp;Humidity;BMP_temperature;BMP_pressure;BME280_temperature;BME280_humidity;BME280_pressure;Samples;Min_cycle;Max_cycle;Signal;HPM_P1;HPM_P2
2023/04/29 00:00:46;;;;;;;2.22;0.50;;;;;;;2.74;62.57;101556.88;4986046;28;20970;-70
2023/04/29 00:03:13;;;;;;;0.52;0.28;;;;;;;2.72;62.79;101552.50;4986888;28;20104;-70
2023/04/29 00:05:40;;;;;;;0.70;0.20;;;;;;;2.70;62.81;101555.91;4983853;28;20053;-70
2023/04/29 00:08:07;;;;;;;2.15;0.30;;;;;;;2.68;62.79;101548.97;4986780;28;20054;-70
2023/04/29 00:10:34;;;;;;;2.78;0.30;;;;;;;2.66;63.21;101545.47;4983453;28;20045;-70
2023/04/29 00:13:01;;;;;;;0.30;0.20;;;;;;;2.64;62.75;101539.38;4986703;28;20055;-69
2023/04/29 00:15:27;;;;;;;0.57;0.20;;;;;;;2.64;62.97;101549.69;4983151;28;20062;-70
2023/04/29 00:17:56;;;;;;;1.17;0.30;;;;;;;2.63;63.10;101540.22;4984773;28;20046;-69
2023/04/29 00:20:23;;;;;;;0.52;0.20;;;;;;;2.61;63.04;101534.16;4985198;28;20569;-70
2023/04/29 00:22:49;;;;;;;1.27;0.20;;;;;;;2.60;63.04;101532.41;4979624;28;20061;-70
2023/04/29 00:25:16;;;;;;;0.85;0.40;;;;;;;2.59;63.17;101535.81;4986877;28;20057;-70
2023/04/29 00:27:43;;;;;;;1.55;0.30;;;;;;;2.57;62.67;101528.03;4986277;28;20736;-69
2023/04/29 00:30:11;;;;;;;2.80;0.30;;;;;;;2.55;63.52;101539.16;4983721;28;20570;-69
2023/04/29 00:32:38;;;;;;;0.30;0.20;;;;;;;2.55;63.33;101534.00;4984170;28;20065;-70
2023/04/29 00:35:07;;;;;;;1.95;0.20;;;;;;;2.53;63.09;101536.50;4988422;28;20050;-70
2023/04/29 00:37:35;;;;;;;0.50;0.20;;;;;;;2.51;62.71;101533.03;4986278;28;20779;-70
2023/04/29 00:40:02;;;;;;;0.57;0.30;;;;;;;2.49;62.83;101537.28;4987174;28;20112;-68
2023/04/29 00:42:29;;;;;;;2.45;0.65;;;;;;;2.46;63.00;101537.19;4986513;28;20050;-68
2023/04/29 00:44:56;;;;;;;0.77;0.20;;;;;;;2.44;63.27;101532.00;4985643;28;20058;-68
2023/04/29 00:47:23;;;;;;;6.28;0.68;;;;;;;2.43;62.88;101535.41;4986242;28;20466;-68
2023/04/29 00:49:50;;;;;;;2.20;0.30;;;;;;;2.42;63.21;101538.84;4985501;28;20046;-68
2023/04/29 00:52:19;;;;;;;0.88;0.20;;;;;;;2.41;63.20;101542.22;4987957;28;20069;-68
2023/04/29 00:54:47;;;;;;;0.90;0.25;;;;;;;2.39;63.38;101536.16;4986493;28;20113;-68
2023/04/29 00:57:15;;;;;;;0.28;0.25;;;;;;;2.38;64.08;101536.97;4984573;28;20050;-68
2023/04/29 00:59:42;;;;;;;1.58;0.30;;;;;;;2.36;63.47;101535.19;4985226;28;20053;-68
2023/04/29 01:02:09;;;;;;;2.42;0.30;;;;;;;2.34;63.73;101532.59;4983011;28;20054;-68
2023/04/29 01:04:36;;;;;;;0.77;0.73;;;;;;;2.33;63.32;101528.25;4987912;28;20174;-68
2023/04/29 01:07:10;;;;;;;0.70;0.20;;;;;;;2.32;63.54;101529.09;4987158;28;20042;-68
2023/04/29 01:09:53;;;;;;;6.32;0.40;;;;;;;2.30;63.49;101530.75;4985673;28;20049;-68
2023/04/29 01:12:26;;;;;;;1.95;0.30;;;;;;;2.29;63.65;101526.44;4985571;28;20116;-68
2023/04/29 01:15:03;;;;;;;0.73;0.43;;;;;;;2.28;63.92;101526.38;4984905;28;20487;-68
2023/04/29 01:17:37;;;;;;;0.45;0.25;;;;;;;2.23;63.67;101524.56;4985433;28;20038;-68
2023/04/29 01:20:05;;;;;;;3.53;0.50;;;;;;;2.25;64.15;101524.59;4986035;28;20046;-68
2023/04/29 01:22:32;;;;;;;1.55;0.38;;;;;;;2.24;63.33;101528.00;4985737;28;20069;-68
2023/04/29 01:25:00;;;;;;;0.35;0.30;;;;;;;2.22;63.40;101524.50;4987454;28;20061;-68
2023/04/29 01:27:31;;;;;;;3.22;0.30;;;;;;;2.22;63.93;101524.50;4985409;28;20042;-69
2023/04/29 01:30:04;;;;;;;0.57;0.28;;;;;;;2.19;64.14;101524.41;4985529;28;20057;-68
2023/04/29 01:32:41;;;;;;;0.60;0.30;;;;;;;2.18;63.67;101527.84;4980390;28;20057;-68
2023/04/29 01:35:17;;;;;;;0.73;0.30;;;;;;;2.17;63.73;101520.94;4986780;28;20105;-68
2023/04/29 01:37:55;;;;;;;0.95;0.20;;;;;;;2.16;64.30;101526.91;4986052;28;20495;-68
2023/04/29 01:40:30;;;;;;;2.65;0.20;;;;;;;2.14;63.75;101515.72;4988476;28;20053;-68
2023/04/29 01:43:03;;;;;;;0.30;0.30;;;;;;;2.12;64.20;101515.66;4989755;28;20046;-68
2023/04/29 01:45:32;;;;;;;0.85;0.30;;;;;;;2.12;64.17;101517.34;4990256;28;20070;-68
2023/04/29 01:48:00;;;;;;;5.38;1.95;;;;;;;2.09;63.98;101506.97;4988735;28;20051;-68
2023/04/29 01:50:27;;;;;;;1.77;0.30;;;;;;;2.09;64.02;101518.16;4990968;28;20054;-68
2023/04/29 01:52:54;;;;;;;0.88;0.30;;;;;;;2.07;63.72;101509.50;4988469;28;20050;-68
2023/04/29 01:55:21;;;;;;;1.05;0.30;;;;;;;2.06;64.22;101506.88;4989379;28;20043;-68
2023/04/29 01:57:49;;;;;;;0.90;0.30;;;;;;;2.05;64.24;101500.88;4991722;28;20120;-68
2023/04/29 02:00:16;;;;;;;0.68;0.30;;;;;;;2.03;63.99;101503.38;4988772;28;20278;-69
2023/04/29 02:02:43;;;;;;;1.75;0.30;;;;;;;2.03;63.96;101498.22;4988124;28;20050;-68
2023/04/29 02:05:10;;;;;;;0.82;0.30;;;;;;;2.01;64.15;101497.31;4985149;28;20057;-69
2023/04/29 02:07:37;;;;;;;0.40;0.20;;;;;;;2.00;64.20;101499.84;4989254;28;20050;-68
2023/04/29 02:10:05;;;;;;;0.50;0.30;;;;;;;2.00;64.31;101495.56;4989896;28;20057;-64
2023/04/29 02:12:32;;;;;;;1.08;0.30;;;;;;;1.98;64.34;101494.66;4986919;28;20136;-64
2023/04/29 02:15:00;;;;;;;1.05;0.30;;;;;;;1.97;64.44;101492.91;4990114;28;20054;-64
2023/04/29 02:17:27;;;;;;;0.40;0.30;;;;;;;1.97;64.44;101492.91;4989804;28;20054;-67
2023/04/29 02:19:54;;;;;;;0.80;0.20;;;;;;;1.96;64.13;101491.16;4988751;28;20046;-68
2023/04/29 02:22:21;;;;;;;1.35;0.30;;;;;;;1.95;64.47;101478.22;4986948;28;20400;-67
2023/04/29 02:24:48;;;;;;;1.17;0.30;;;;;;;1.94;64.45;101479.94;4990049;28;20057;-68
2023/04/29 02:27:15;;;;;;;0.25;0.20;;;;;;;1.93;64.72;101480.75;4990578;28;20049;-67
2023/04/29 02:29:42;;;;;;;1.17;0.30;;;;;;;1.93;64.31;101475.59;4987481;28;20062;-68
2023/04/29 02:32:10;;;;;;;0.20;0.20;;;;;;;1.91;64.27;101469.56;4989010;28;20578;-68
2023/04/29 02:34:37;;;;;;;0.68;0.30;;;;;;;1.93;64.71;101477.31;4987908;28;20043;-67
2023/04/29 02:37:05;;;;;;;0.30;0.20;;;;;;;1.90;64.76;101470.38;4989261;28;20049;-67
2023/04/29 02:39:31;;;;;;;1.27;0.20;;;;;;;1.90;64.67;101470.38;4988598;28;20474;-67
2023/04/29 02:41:58;;;;;;;0.38;0.20;;;;;;;1.90;64.50;101470.38;4989299;28;20046;-68
2023/04/29 02:44:25;;;;;;;0.25;0.25;;;;;;;1.90;64.19;101469.50;4988400;28;20054;-67
2023/04/29 02:46:52;;;;;;;0.77;0.32;;;;;;;1.89;64.61;101457.47;4987414;28;20046;-67
2023/04/29 02:49:21;;;;;;;0.40;0.30;;;;;;;1.88;64.67;101459.16;4989140;28;20050;-68
2023/04/29 02:51:49;;;;;;;0.90;0.30;;;;;;;1.87;64.78;101459.97;4986504;28;20050;-67
2023/04/29 02:54:16;;;;;;;0.50;0.25;;;;;;;1.87;64.76;101464.25;4988841;28;20156;-68
2023/04/29 02:56:43;;;;;;;0.60;0.30;;;;;;;1.88;64.64;101466.00;4986399;28;20050;-67
2023/04/29 02:59:10;;;;;;;1.85;0.30;;;;;;;1.86;64.99;101455.66;4989810;28;20042;-67
2023/04/29 03:01:38;;;;;;;1.05;0.30;;;;;;;1.86;64.46;101459.94;4990357;28;20046;-67
2023/04/29 03:04:05;;;;;;;0.57;0.25;;;;;;;1.85;65.41;101465.91;4987201;28;20104;-68
2023/04/29 03:06:33;;;;;;;1.52;0.30;;;;;;;1.85;65.05;101459.09;4989297;28;20046;-67
2023/04/29 03:09:00;;;;;;;0.43;0.20;;;;;;;1.85;65.10;101451.34;4988258;28;20038;-67
2023/04/29 03:11:27;;;;;;;2.25;0.30;;;;;;;1.86;65.50;101453.09;4990616;28;20058;-67
2023/04/29 03:13:55;;;;;;;0.98;0.30;;;;;;;1.85;65.34;101451.34;4986519;28;20058;-66
2023/04/29 03:16:22;;;;;;;0.32;0.20;;;;;;;1.85;65.27;101451.34;4989622;28;20825;-67
2023/04/29 03:18:49;;;;;;;0.50;0.30;;;;;;;1.86;65.37;101450.50;4986814;28;20160;-68
2023/04/29 03:21:16;;;;;;;0.52;0.22;;;;;;;1.86;65.61;101450.50;4989528;28;20042;-68
2023/04/29 03:23:44;;;;;;;2.15;0.20;;;;;;;1.86;65.71;101442.78;4987914;28;20773;-67
2023/04/29 03:26:11;;;;;;;0.60;0.30;;;;;;;1.87;65.86;101448.81;4988974;28;20054;-67
2023/04/29 03:28:38;;;;;;;0.70;0.35;;;;;;;1.88;65.34;101453.13;4982851;28;20065;-67
2023/04/29 03:31:05;;;;;;;2.28;0.35;;;;;;;1.87;65.39;101441.94;4989073;28;20426;-67
2023/04/29 03:33:32;;;;;;;0.52;0.30;;;;;;;1.88;65.54;101454.00;4986953;28;20046;-67
2023/04/29 03:35:59;;;;;;;0.85;0.20;;;;;;;1.90;65.75;101451.47;4988970;28;20061;-67
2023/04/29 03:38:26;;;;;;;0.85;0.28;;;;;;;1.91;65.53;101450.66;4987053;28;20569;-68
2023/04/29 03:40:54;;;;;;;0.90;0.25;;;;;;;1.92;65.24;101448.09;4986971;28;20529;-67
2023/04/29 03:43:21;;;;;;;1.23;0.30;;;;;;;1.94;65.69;101450.72;4986464;28;21007;-67
2023/04/29 03:45:48;;;;;;;0.98;0.30;;;;;;;1.96;65.69;101439.66;4987518;28;20061;-68
2023/04/29 03:48:15;;;;;;;0.93;0.25;;;;;;;1.98;65.83;101443.09;4986768;28;20047;-67
2023/04/29 03:50:42;;;;;;;0.40;0.30;;;;;;;2.02;66.68;101441.47;4988830;28;20392;-67
2023/04/29 03:53:09;;;;;;;0.32;0.20;;;;;;;2.05;66.97;101440.69;4986069;28;20054;-67
2023/04/29 03:55:36;;;;;;;2.03;0.30;;;;;;;2.08;66.28;101441.69;4988037;28;20049;-68
2023/04/29 03:58:05;;;;;;;0.50;0.20;;;;;;;2.10;66.68;101429.69;4986173;28;20046;-67
2023/04/29 04:00:32;;;;;;;0.32;0.20;;;;;;;2.13;66.51;101427.19;4986758;28;20047;-67
2023/04/29 04:02:59;;;;;;;0.40;0.20;;;;;;;2.17;67.07;101428.16;4986287;28;20046;-68
2023/04/29 04:05:26;;;;;;;1.88;0.30;;;;;;;2.20;66.77;101423.09;4986764;28;20057;-68
2023/04/29 04:07:54;;;;;;;2.17;0.20;;;;;;;2.22;67.04;101421.38;4988041;28;20042;-67
2023/04/29 04:10:20;;;;;;;2.65;0.30;;;;;;;2.25;67.33;101422.38;4986656;28;20061;-68
2023/04/29 04:12:47;;;;;;;1.95;0.30;;;;;;;2.28;66.65;101419.00;4988574;28;20070;-68
2023/04/29 04:15:16;;;;;;;2.72;0.28;;;;;;;2.32;67.14;101422.53;4986370;28;20047;-67
2023/04/29 04:17:43;;;;;;;0.30;0.20;;;;;;;2.35;66.78;101420.88;4988771;28;20134;-67
2023/04/29 04:20:12;;;;;;;5.57;0.20;;;;;;;2.38;67.17;101417.50;4984778;28;20100;-68
2023/04/29 04:22:39;;;;;;;1.05;0.30;;;;;;;2.42;67.57;101417.66;4983867;28;20050;-68
2023/04/29 04:25:07;;;;;;;5.93;0.32;;;;;;;2.48;67.67;101419.50;4987303;28;20042;-68
2023/04/29 04:27:34;;;;;;;1.67;0.40;;;;;;;2.52;68.26;101418.72;4988253;28;20046;-67
2023/04/29 04:30:01;;;;;;;5.78;0.30;;;;;;;2.57;68.61;101418.84;4984229;28;20049;-67
2023/04/29 04:32:29;;;;;;;1.85;0.30;;;;;;;2.63;68.75;101411.25;4987317;28;20061;-68
2023/04/29 04:34:56;;;;;;;0.90;0.40;;;;;;;2.71;68.70;101414.91;4985369;28;20046;-68
2023/04/29 04:37:23;;;;;;;0.43;0.30;;;;;;;2.78;68.85;101409.03;4988663;28;20491;-67
2023/04/29 04:39:50;;;;;;;0.40;0.20;;;;;;;2.90;69.24;101411.03;4983856;28;20125;-68
2023/04/29 04:42:17;;;;;;;0.40;0.30;;;;;;;3.01;69.85;101411.28;4988219;28;20169;-68
2023/04/29 04:44:43;;;;;;;4.05;0.30;;;;;;;3.14;69.53;101413.31;4983992;28;20050;-68
2023/04/29 04:47:11;;;;;;;3.30;0.30;;;;;;;3.26;69.04;101413.56;4986719;28;20054;-68
2023/04/29 04:49:40;;;;;;;1.65;0.20;;;;;;;3.37;68.88;101406.91;4984811;28;20054;-68
2023/04/29 04:52:06;;;;;;;0.68;0.30;;;;;;;3.50;68.89;101407.16;4987386;28;20070;-68
2023/04/29 04:54:34;;;;;;;1.75;0.30;;;;;;;3.62;68.55;101417.75;4985759;28;20050;-67
2023/04/29 04:57:04;;;;;;;0.30;0.30;;;;;;;3.71;68.77;101407.59;4986007;28;20054;-68
2023/04/29 04:59:32;;;;;;;0.88;0.40;;;;;;;3.81;68.32;101401.78;4985789;28;20046;-67
2023/04/29 05:01:59;;;;;;;0.50;0.30;;;;;;;3.96;68.44;101395.16;4984671;28;20530;-68
2023/04/29 05:04:26;;;;;;;2.20;0.35;;;;;;;4.06;68.60;101395.34;4987252;28;20055;-68
2023/04/29 05:06:54;;;;;;;0.80;0.30;;;;;;;4.16;68.59;101401.56;4986717;28;20081;-68
2023/04/29 05:09:22;;;;;;;2.15;0.30;;;;;;;4.26;68.46;101393.09;4986726;28;20042;-68
2023/04/29 05:11:49;;;;;;;0.45;0.30;;;;;;;4.37;68.31;101389.84;4965146;28;20065;-69
2023/04/29 05:14:16;;;;;;;3.72;0.30;;;;;;;4.47;67.94;101389.16;4970643;28;20052;-68
2023/04/29 05:16:45;;;;;;;1.90;0.30;;;;;;;4.54;68.05;101383.22;4986501;28;20100;-68
2023/04/29 05:19:12;;;;;;;1.73;0.30;;;;;;;4.63;67.91;101378.19;4985769;28;20038;-68
2023/04/29 05:21:39;;;;;;;1.38;0.40;;;;;;;4.71;68.32;101376.59;4986619;28;20050;-68
2023/04/29 05:24:07;;;;;;;3.92;0.30;;;;;;;4.80;67.97;101373.28;4986578;28;20047;-68
2023/04/29 05:26:34;;;;;;;0.50;0.35;;;;;;;4.88;68.08;101373.38;4986278;28;20052;-68
2023/04/29 05:29:01;;;;;;;4.68;0.20;;;;;;;4.96;67.76;101367.47;4987449;28;20053;-68
2023/04/29 05:31:28;;;;;;;0.57;0.30;;;;;;;5.03;67.64;101363.22;4983719;28;20043;-68
2023/04/29 05:33:54;;;;;;;2.05;0.75;;;;;;;5.12;67.31;101362.50;4986770;28;20061;-68
2023/04/29 05:36:21;;;;;;;1.88;0.30;;;;;;;5.18;67.28;101358.28;4984206;28;20050;-68
2023/04/29 05:38:48;;;;;;;4.43;0.40;;;;;;;5.26;66.98;101357.50;4986711;28;20050;-68
2023/04/29 05:41:16;;;;;;;1.27;0.52;;;;;;;5.32;67.11;101352.38;4983838;28;20050;-68
2023/04/29 05:43:43;;;;;;;3.70;1.25;;;;;;;5.39;67.48;101341.25;4984762;28;20054;-68
2023/04/29 05:46:10;;;;;;;1.70;0.38;;;;;;;5.47;66.90;101342.22;4986144;28;20061;-67
2023/04/29 05:48:37;;;;;;;1.60;0.40;;;;;;;5.54;66.97;101336.25;4987023;28;20193;-68
2023/04/29 05:51:03;;;;;;;2.35;0.40;;;;;;;5.63;66.60;101331.19;4985811;28;20079;-68
2023/04/29 05:53:32;;;;;;;4.00;0.50;;;;;;;5.71;66.51;101327.78;4986066;28;20057;-68
2023/04/29 05:55:58;;;;;;;5.45;0.60;;;;;;;5.79;66.64;101326.16;4982601;28;20043;-68
2023/04/29 05:58:27;;;;;;;16.38;2.35;;;;;;;5.87;66.10;101324.50;4985323;28;20046;-68
2023/04/29 06:00:53;;;;;;;2.83;0.47;;;;;;;5.93;66.07;101324.59;4984876;28;20050;-68
2023/04/29 06:03:20;;;;;;;5.35;1.38;;;;;;;6.01;66.09;101315.16;4985284;28;20046;-68
2023/04/29 06:05:47;;;;;;;3.70;0.30;;;;;;;6.08;65.85;101319.53;4985082;28;20505;-68
2023/04/29 06:08:14;;;;;;;2.65;0.55;;;;;;;6.14;65.81;101310.94;4982612;28;20117;-69
2023/04/29 06:10:41;;;;;;;3.13;0.50;;;;;;;6.21;65.79;101312.72;4985102;28;20050;-69
2023/04/29 06:13:08;;;;;;;1.27;0.35;;;;;;;6.27;65.60;101309.31;4985644;28;20066;-69
2023/04/29 06:15:36;;;;;;;6.22;0.52;;;;;;;6.35;65.64;101311.94;4985724;28;20042;-69
2023/04/29 06:18:03;;;;;;;7.82;0.57;;;;;;;6.41;65.44;101312.00;4985697;28;20490;-69
2023/04/29 06:20:30;;;;;;;3.20;0.60;;;;;;;6.48;65.55;101308.59;4985116;28;20271;-69
2023/04/29 06:22:57;;;;;;;0.52;0.30;;;;;;;6.52;65.06;101308.63;4986321;28;20051;-68
2023/04/29 06:25:23;;;;;;;3.75;0.63;;;;;;;6.59;65.20;101306.94;4986391;28;20679;-68
2023/04/29 06:27:50;;;;;;;0.82;0.28;;;;;;;6.65;64.63;101306.09;4990992;28;20055;-68
2023/04/29 06:30:17;;;;;;;1.88;0.30;;;;;;;6.69;64.65;101307.88;4987680;28;20483;-68
2023/04/29 06:32:45;;;;;;;2.85;0.52;;;;;;;6.76;64.98;101304.44;4991096;28;20060;-68
2023/04/29 06:35:12;;;;;;;5.50;0.60;;;;;;;6.82;64.97;101301.00;4985835;28;20683;-68
2023/04/29 06:37:39;;;;;;;1.67;0.47;;;;;;;6.87;64.71;101305.38;4987815;28;20046;-68
2023/04/29 06:40:07;;;;;;;3.58;1.40;;;;;;;6.93;64.55;101301.94;4987352;28;21042;-68
2023/04/29 06:42:34;;;;;;;0.95;0.30;;;;;;;6.97;64.56;101299.38;4988594;28;20038;-68
2023/04/29 06:45:01;;;;;;;0.90;0.40;;;;;;;7.03;64.49;101297.66;4987732;28;20054;-68
2023/04/29 06:47:28;;;;;;;1.23;0.40;;;;;;;7.07;64.51;101296.81;4990877;28;20402;-68
2023/04/29 06:49:56;;;;;;;0.47;0.35;;;;;;;7.13;64.61;101289.91;4985006;28;20522;-68
2023/04/29 06:52:23;;;;;;;5.43;0.40;;;;;;;7.18;64.51;101288.19;4987785;28;20050;-68
2023/04/29 06:54:50;;;;;;;1.55;0.40;;;;;;;7.24;64.12;101282.16;4989043;28;20054;-68
2023/04/29 06:57:17;;;;;;;0.95;0.30;;;;;;;7.30;64.31;101287.38;4987081;28;20061;-68
2023/04/29 06:59:44;;;;;;;12.32;0.98;;;;;;;7.37;64.27;101280.44;4988293;28;20046;-68
2023/04/29 07:02:10;;;;;;;2.45;0.70;;;;;;;7.42;64.47;101284.78;4988857;28;20046;-69
2023/04/29 07:04:37;;;;;;;2.92;0.40;;;;;;;7.50;64.17;101279.63;4987984;28;20053;-69
2023/04/29 07:07:05;;;;;;;2.78;0.60;;;;;;;7.57;63.98;101276.19;4986346;28;20054;-68
2023/04/29 07:09:33;;;;;;;3.42;0.40;;;;;;;7.67;63.97;101284.84;4990427;28;20053;-68
2023/04/29 07:12:01;;;;;;;2.50;0.47;;;;;;;7.73;63.88;101284.84;4943086;28;20057;-68
2023/04/29 07:14:29;;;;;;;1.25;0.38;;;;;;;7.80;63.79;101284.03;4988274;28;20056;-68
2023/04/29 07:16:56;;;;;;;3.10;0.52;;;;;;;7.87;63.77;101272.75;4990463;28;20055;-69
2023/04/29 07:19:23;;;;;;;0.90;0.30;;;;;;;7.95;63.65;101277.09;4988312;28;20506;-68
2023/04/29 07:21:49;;;;;;;3.28;0.40;;;;;;;8.03;63.53;101272.75;4988544;28;20046;-68
2023/04/29 07:24:18;;;;;;;3.92;0.43;;;;;;;8.11;64.02;101266.69;4986755;28;20050;-68
2023/04/29 07:26:45;;;;;;;2.55;0.40;;;;;;;8.17;63.77;101273.63;4987030;28;20528;-69
2023/04/29 07:29:12;;;;;;;5.90;0.43;;;;;;;8.23;63.54;101263.19;4986424;28;20058;-68
2023/04/29 07:31:38;;;;;;;8.27;0.45;;;;;;;8.31;63.24;101261.47;4987722;28;20054;-69
2023/04/29 07:34:05;;;;;;;2.65;0.38;;;;;;;8.39;63.30;101268.41;4981235;28;20054;-68
2023/04/29 07:36:32;;;;;;;5.78;0.40;;;;;;;8.47;63.42;101257.13;4985928;28;20104;-68
2023/04/29 07:38:59;;;;;;;4.03;0.50;;;;;;;8.57;63.15;101252.78;4987283;28;20054;-70
2023/04/29 07:41:28;;;;;;;7.40;0.70;;;;;;;8.68;62.88;101266.63;4980402;28;20057;-68
2023/04/29 07:43:55;;;;;;;2.85;0.40;;;;;;;8.78;63.13;101259.63;4986836;28;20046;-69
2023/04/29 07:46:22;;;;;;;3.88;0.63;;;;;;;8.88;62.48;101247.44;4985496;28;20749;-68
2023/04/29 07:48:49;;;;;;;3.05;0.43;;;;;;;8.94;62.24;101245.69;4986628;28;20050;-69
2023/04/29 07:51:15;;;;;;;1.10;0.30;;;;;;;9.04;62.00;101243.91;4984963;28;20061;-69
2023/04/29 07:53:42;;;;;;;3.60;0.35;;;;;;;9.12;62.23;101249.09;4989423;28;20050;-69
2023/04/29 07:56:09;;;;;;;2.10;0.30;;;;;;;9.15;61.79;101231.69;4986128;28;20046;-69
2023/04/29 07:58:38;;;;;;;2.58;0.30;;;;;;;9.27;61.07;101235.97;4989666;28;20049;-69
2023/04/29 08:01:09;;;;;;;3.42;0.30;;;;;;;9.31;60.78;101227.25;4986315;28;20054;-68
2023/04/29 08:03:36;;;;;;;2.45;0.40;;;;;;;9.43;60.11;101231.53;4985333;28;20070;-69
2023/04/29 08:06:03;;;;;;;3.30;0.40;;;;;;;9.46;60.31;101227.16;4989312;28;20054;-69
2023/04/29 08:08:30;;;;;;;0.80;0.43;;;;;;;9.53;59.83;101222.75;4983905;28;20049;-69
2023/04/29 08:10:57;;;;;;;1.63;0.68;;;;;;;9.58;59.59;101220.97;4985747;28;20053;-69
2023/04/29 08:13:24;;;;;;;3.25;1.25;;;;;;;9.65;59.59;101227.03;4986649;28;20054;-70
2023/04/29 08:15:53;;;;;;;2.70;0.50;;;;;;;9.76;58.67;101226.94;4986866;28;20061;-69
2023/04/29 08:18:20;;;;;;;3.45;0.25;;;;;;;9.80;57.42;101226.91;4984919;28;20042;-69
2023/04/29 08:20:48;;;;;;;3.42;0.40;;;;;;;9.88;57.15;101224.25;4987569;28;20189;-69
2023/04/29 08:23:15;;;;;;;1.25;0.20;;;;;;;9.90;56.24;101214.63;4981674;28;20043;-69
2023/04/29 08:25:43;;;;;;;4.78;1.10;;;;;;;9.99;56.30;101211.97;4985425;28;20640;-69
2023/04/29 08:28:10;;;;;;;0.93;0.20;;;;;;;10.03;55.60;101208.44;4982688;28;20396;-69
2023/04/29 08:30:39;;;;;;;0.57;0.20;;;;;;;10.07;53.89;101215.34;4986524;28;20424;-69
2023/04/29 08:33:08;;;;;;;2.40;0.25;;;;;;;10.11;53.18;101213.59;4983556;28;20047;-69
2023/04/29 08:35:36;;;;;;;0.40;0.20;;;;;;;10.16;54.04;101210.94;4984755;28;20054;-69
2023/04/29 08:38:05;;;;;;;2.10;0.30;;;;;;;10.20;53.20;101212.66;4983994;28;20457;-68
2023/04/29 08:40:35;;;;;;;2.05;0.20;;;;;;;10.24;53.11;101216.94;4982614;28;20105;-69
2023/04/29 08:43:03;;;;;;;2.03;0.20;;;;;;;10.27;52.95;101217.81;4981633;28;20422;-68
2023/04/29 08:45:32;;;;;;;0.57;0.20;;;;;;;10.31;52.08;101213.44;4983904;28;20046;-68
2023/04/29 08:48:02;;;;;;;1.00;0.20;;;;;;;10.36;51.86;101214.25;4985081;28;20050;-69
2023/04/29 08:50:32;;;;;;;4.57;0.20;;;;;;;10.40;51.63;101213.34;4986505;28;20046;-69
2023/04/29 08:53:00;;;;;;;0.50;0.10;;;;;;;10.43;51.30;101209.81;4980806;28;20434;-69
2023/04/29 08:55:27;;;;;;;1.05;0.20;;;;;;;10.45;50.88;101208.06;4985900;28;20050;-68
2023/04/29 08:57:55;;;;;;;0.70;0.10;;;;;;;10.48;51.16;101211.50;4977471;28;20054;-69
2023/04/29 09:00:24;;;;;;;0.70;0.20;;;;;;;10.50;50.49;101207.13;4986090;28;20054;-69
2023/04/29 09:02:53;;;;;;;0.65;0.10;;;;;;;10.53;51.25;101209.72;4981436;28;20155;-69
2023/04/29 09:05:22;;;;;;;0.40;0.20;;;;;;;10.55;51.07;101201.84;4985698;28;20047;-69
2023/04/29 09:07:51;;;;;;;2.55;0.20;;;;;;;10.60;51.02;101204.41;4984579;28;20061;-69
2023/04/29 09:10:19;;;;;;;2.35;0.30;;;;;;;10.62;50.66;101200.91;4987138;28;20053;-69
2023/04/29 09:12:46;;;;;;;0.52;0.30;;;;;;;10.65;50.68;101213.94;4984325;28;20050;-69
2023/04/29 09:15:13;;;;;;;4.80;0.22;;;;;;;10.67;50.21;101200.81;4984859;28;20697;-69
2023/04/29 09:17:41;;;;;;;2.88;0.20;;;;;;;10.67;49.87;101193.88;4983541;28;20053;-69
2023/04/29 09:20:36;;;;;;;0.32;0.28;;;;;;;10.69;50.31;101188.63;4986035;28;20157;-69
2023/04/29 09:23:04;;;;;;;3.70;0.63;;;;;;;10.68;49.62;101190.38;4951014;28;20502;-69
2023/04/29 09:25:31;;;;;;;2.38;0.20;;;;;;;10.70;49.72;101178.16;4982512;28;20487;-70
2023/04/29 09:27:58;;;;;;;3.47;0.50;;;;;;;10.72;49.76;101173.75;4983338;28;20046;-69
2023/04/29 09:30:25;;;;;;;7.90;0.90;;;;;;;10.74;49.88;101172.00;4983058;28;20042;-69
2023/04/29 09:33:05;;;;;;;2.03;0.30;;;;;;;10.78;49.48;101162.38;4986219;28;20430;-69
2023/04/29 09:35:32;;;;;;;0.38;0.20;;;;;;;10.79;49.91;101148.44;4983915;28;20105;-69
2023/04/29 09:38:11;;;;;;;2.97;0.30;;;;;;;10.81;49.19;101141.41;4984670;28;20051;-69
2023/04/29 09:40:39;;;;;;;3.95;0.68;;;;;;;10.86;49.05;101147.44;4983980;28;20054;-69
2023/04/29 09:43:13;;;;;;;5.55;0.35;;;;;;;10.89;49.38;101139.56;4980008;28;20050;-68
2023/04/29 09:45:41;;;;;;;0.65;0.45;;;;;;;10.94;48.81;101136.91;4983377;28;20065;-69
2023/04/29 09:48:10;;;;;;;4.45;1.35;;;;;;;10.96;48.94;101129.91;4985440;28;20050;-68
2023/04/29 09:50:38;;;;;;;362.85;211.20;;;;;;;11.00;48.93;101121.97;4985461;28;20529;-68
2023/04/29 09:53:07;;;;;;;35.15;19.35;;;;;;;11.03;48.59;101116.72;4984576;28;20628;-69
2023/04/29 09:55:36;;;;;;;100.88;47.92;;;;;;;10.93;48.39;101086.38;4985643;28;20057;-68
2023/04/29 09:58:03;;;;;;;33.47;13.73;;;;;;;11.15;48.50;101120.03;4979395;28;20360;-69
2023/04/29 10:00:32;;;;;;;14.63;4.70;;;;;;;11.17;48.00;101111.28;4988434;28;20085;-69
2023/04/29 10:03:00;;;;;;;44.65;21.88;;;;;;;11.23;48.36;101116.41;4986252;28;20078;-68
2023/04/29 10:05:29;;;;;;;262.35;121.53;;;;;;;11.27;47.15;101109.41;4990543;28;20050;-69
2023/04/29 10:07:59;;;;;;;42.28;15.93;;;;;;;11.32;46.97;101102.31;4986360;28;20054;-68
2023/04/29 10:10:28;;;;;;;95.22;39.53;;;;;;;11.35;46.95;101094.41;4988327;28;20057;-69
2023/04/29 10:13:00;;;;;;;14.50;5.60;;;;;;;11.40;46.46;101094.34;4987328;28;20065;-70
2023/04/29 10:15:35;;;;;;;47.83;19.55;;;;;;;11.43;46.90;101095.16;4987146;28;20057;-70
2023/04/29 10:18:14;;;;;;;8.10;2.20;;;;;;;11.47;46.75;101096.84;4983255;28;20522;-69
2023/04/29 10:20:46;;;;;;;23.35;8.43;;;;;;;11.51;45.99;101096.78;4984833;28;20501;-70
2023/04/29 10:23:13;;;;;;;48.50;19.55;;;;;;;11.53;45.96;101092.41;4987998;28;20042;-70
2023/04/29 10:25:42;;;;;;;19.48;6.78;;;;;;;11.51;46.04;101100.25;4987899;28;20054;-70
2023/04/29 10:28:15;;;;;;;46.60;16.00;;;;;;;11.53;45.60;101098.50;4987867;28;20046;-70
2023/04/29 10:30:44;;;;;;;31.95;11.23;;;;;;;11.56;45.85;101084.50;4985750;28;20113;-70
2023/04/29 10:33:13;;;;;;;5.15;2.20;;;;;;;11.57;45.54;101084.47;4989955;28;20046;-70
2023/04/29 10:35:43;;;;;;;19.00;9.00;;;;;;;11.59;45.45;101079.22;4985074;28;20060;-70
2023/04/29 10:38:17;;;;;;;4.13;2.45;;;;;;;11.62;44.64;101073.91;4986873;28;20056;-70
2023/04/29 10:40:45;;;;;;;2.03;0.35;;;;;;;11.64;45.05;101073.00;4986658;28;20050;-70
2023/04/29 10:43:14;;;;;;;14.52;4.72;;;;;;;11.65;44.97;101059.03;4986440;28;20054;-71
2023/04/29 10:45:41;;;;;;;26.02;10.40;;;;;;;11.67;44.48;101051.16;4989160;28;20046;-70
2023/04/29 10:48:17;;;;;;;63.75;19.30;;;;;;;11.67;44.60;101067.72;4987280;28;20066;-70
2023/04/29 10:51:03;;;;;;;90.78;48.00;;;;;;;11.69;44.00;101065.06;4991184;28;20468;-70
2023/04/29 10:53:31;;;;;;;185.25;98.20;;;;;;;11.67;43.26;101056.38;4988847;28;20058;-70
2023/04/29 10:56:05;;;;;;;49.90;25.05;;;;;;;11.67;43.02;101067.72;4988230;28;20400;-70
2023/04/29 10:58:38;;;;;;;114.78;73.70;;;;;;;11.67;42.75;101065.09;4988903;28;20046;-70
2023/04/29 11:01:09;;;;;;;68.05;43.72;;;;;;;11.67;42.08;101059.00;4984245;28;20046;-70
2023/04/29 11:03:57;;;;;;;332.73;209.35;;;;;;;11.66;42.54;101046.78;4984671;28;20068;-70
2023/04/29 11:06:25;;;;;;;481.88;349.85;;;;;;;11.66;41.43;101054.66;4981164;28;20057;-72
2023/04/29 11:09:03;;;;;;;64.13;38.95;;;;;;;11.65;41.19;101043.31;4983494;28;20521;-70
2023/04/29 11:12:04;;;;;;;155.25;110.07;;;;;;;11.63;41.62;101037.25;4977922;28;20134;-70
2023/04/29 11:14:36;;;;;;;26.80;17.92;;;;;;;11.59;40.93;101032.97;4980116;28;20062;-70
2023/04/29 11:17:05;;;;;;;211.98;147.20;;;;;;;11.58;40.98;101025.13;4978122;28;20046;-70
2023/04/29 11:19:33;;;;;;;78.55;48.85;;;;;;;11.56;40.37;101021.72;4982659;28;20053;-70
2023/04/29 11:22:29;;;;;;;183.68;123.90;;;;;;;11.57;40.77;101031.28;4988544;28;20056;-70
2023/04/29 11:24:59;;;;;;;20.98;15.88;;;;;;;11.54;40.07;101029.56;4967709;28;20043;-70
2023/04/29 11:27:29;;;;;;;33.78;25.10;;;;;;;11.52;40.33;101031.34;4985071;28;20046;-70
2023/04/29 11:29:59;;;;;;;132.27;80.32;;;;;;;11.48;39.77;101030.53;4987098;28;20053;-71
2023/04/29 11:32:26;;;;;;;98.50;57.92;;;;;;;11.44;40.00;101025.38;4987266;28;20150;-70
2023/04/29 11:34:53;;;;;;;102.68;56.03;;;;;;;11.42;40.13;101029.81;4989079;28;20057;-70